Disney Magic — C6PT7 — position and weather

sailwx.info

Track history (hours):
 
Tides and Currents Weather Stations Pressure Air Temp Water Temp Dewpoint Dewpoint Depression Visibility Wind Speed Wind Dir Waves Ship Positions

Disney Magic

Last reported at 2018-Jun-22 07:29 UTC. Time now 2018-Jun-22 07:42 UTC.
Position N 40°51' E 014°16'.

Type: Passenger vessel. MMSI: 308516000.

Date/timePositionNaut miles runAvg speedWind from/ knotsBaromVisibWave heightAir tempDewpointWater temp
2018-Jun-22 07:29N 40°51' E 014°16'0 0.0
2018-Jun-22 06:56N 40°51' E 014°16'0 0.0
2018-Jun-22 06:29N 40°51' E 014°16'0 0.0
2018-Jun-22 05:59N 40°51' E 014°16'0 0.0
2018-Jun-22 05:29N 40°51' E 014°16'0 0.0
2018-Jun-22 04:59N 40°51' E 014°16'0 0.0
2018-Jun-22 04:29N 40°51' E 014°16'0 0.1
2018-Jun-22 04:00N 40°51' E 014°16'2 4.8
2018-Jun-22 03:30N 40°49' E 014°17'5 9.2
2018-Jun-22 03:00N 40°45' E 014°14'4 8.8
2018-Jun-22 02:30N 40°42' E 014°10'4 8.8
2018-Jun-22 02:00N 40°39' E 014°05'5 9.3
2018-Jun-22 01:30N 40°37' E 013°59'4 8.3
2018-Jun-22 01:00N 40°36' E 013°54'4 8.3
2018-Jun-22 00:30N 40°35' E 013°49'4 8.4
2018-Jun-22 00:00N 40°34' E 013°44'4 8.6
2018-Jun-21 23:30N 40°32' E 013°38'4 8.4
2018-Jun-21 23:00N 40°33' E 013°33'4 8.7
2018-Jun-21 22:30N 40°33' E 013°27'25 8.9
2018-Jun-21 19:41N 40°38' E 012°54'82 8.7
2018-Jun-21 10:18N 41°32' E 011°33'4 8.8
2018-Jun-21 09:49N 41°36' E 011°30'14 9.0
2018-Jun-21 08:14N 41°46' E 011°17'3 8.9
2018-Jun-21 07:55N 41°48' E 011°14'4 9.0
2018-Jun-21 07:30N 41°51' E 011°11'6 9.3
2018-Jun-21 06:51N 41°55' E 011°05'5 9.4
2018-Jun-21 06:22N 41°59' E 011°01'5 9.3
2018-Jun-21 05:47N 42°03' E 010°56'3 9.3
2018-Jun-21 05:30N 42°05' E 010°54'5 9.3
2018-Jun-21 05:00N 42°08' E 010°49'5 9.2
2018-Jun-21 04:30N 42°11' E 010°45'5 9.3
2018-Jun-21 04:00N 42°15' E 010°41'5 9.3
2018-Jun-21 03:30N 42°18' E 010°36'5 9.3
2018-Jun-21 02:59N 42°22' E 010°32'5 9.2
2018-Jun-21 02:29N 42°25' E 010°28'5 9.3
2018-Jun-21 01:54N 42°29' E 010°23'4 9.3
2018-Jun-21 01:30N 42°32' E 010°20'11 9.6
2018-Jun-21 00:19N 42°40' E 010°08'3 9.7
2018-Jun-21 00:00N 42°42' E 010°05'5 9.6
2018-Jun-20 23:30N 42°44' E 009°59'3 6.8
2018-Jun-20 23:00N 42°47' E 010°00'4 9.0
2018-Jun-20 22:30N 42°51' E 010°03'5 9.3
2018-Jun-20 22:00N 42°56' E 010°05'5 9.5
2018-Jun-20 21:30N 42°60' E 010°08'5 9.2
2018-Jun-20 21:00N 43°04' E 010°10'5 9.2
2018-Jun-20 20:30N 43°09' E 010°09'5 9.1
2018-Jun-20 20:00N 43°13' E 010°07'4 9.0
2018-Jun-20 19:30N 43°18' E 010°07'5 9.4
2018-Jun-20 19:00N 43°22' E 010°08'5 9.4
2018-Jun-20 18:30N 43°27' E 010°10'5 9.1
2018-Jun-20 18:00N 43°31' E 010°13'4 8.0
2018-Jun-20 17:30N 43°33' E 010°17'1 1.2
2018-Jun-20 17:00N 43°33' E 010°18'0 0.0
2018-Jun-20 16:30N 43°33' E 010°18'0 0.0
2018-Jun-20 15:57N 43°33' E 010°18'0 0.0
2018-Jun-20 15:30N 43°33' E 010°18'0 0.0
2018-Jun-20 15:00N 43°33' E 010°18'0 0.0
2018-Jun-20 14:30N 43°33' E 010°18'0 0.0
2018-Jun-20 13:57N 43°33' E 010°18'0 0.0
2018-Jun-20 13:30N 43°33' E 010°18'0 0.0
2018-Jun-20 13:00N 43°33' E 010°18'0 0.0
2018-Jun-20 12:27N 43°33' E 010°18'0 0.0
2018-Jun-20 12:00N 43°33' E 010°18'0 0.0
2018-Jun-20 11:27N 43°33' E 010°18'0 0.0
2018-Jun-20 11:00N 43°33' E 010°18'0 0.0
2018-Jun-20 10:30N 43°33' E 010°18'0 0.0
2018-Jun-20 10:00N 43°33' E 010°18'0 0.0
2018-Jun-20 09:30N 43°33' E 010°18'0 0.0
2018-Jun-20 09:00N 43°33' E 010°18'0 0.0
2018-Jun-20 08:27N 43°33' E 010°18'0 0.0
2018-Jun-20 08:00N 43°33' E 010°18'0 0.0
2018-Jun-20 07:30N 43°33' E 010°18'0 0.0
2018-Jun-20 06:57N 43°33' E 010°18'0 0.0
2018-Jun-20 06:27N 43°33' E 010°18'0 0.0
2018-Jun-20 06:00N 43°33' E 010°18'0 0.0
2018-Jun-20 05:30N 43°33' E 010°18'0 0.0
2018-Jun-20 05:00N 43°33' E 010°18'0 0.4
2018-Jun-20 04:31N 43°33' E 010°18'2 4.7
2018-Jun-20 04:00N 43°31' E 010°16'1 2.9
2018-Jun-20 03:30N 43°30' E 010°14'4 7.5
2018-Jun-20 03:00N 43°30' E 010°09'4 8.7
2018-Jun-20 02:30N 43°31' E 010°03'4 8.7
2018-Jun-20 02:00N 43°32' E 009°57'4 8.7
2018-Jun-20 01:30N 43°34' E 009°52'5 9.6
2018-Jun-20 01:00N 43°36' E 009°46'510.1
2018-Jun-20 00:30N 43°39' E 009°41'5 9.6
2018-Jun-20 00:00N 43°42' E 009°35'5 9.2
2018-Jun-19 23:30N 43°44' E 009°30'5 9.2
2018-Jun-19 23:00N 43°47' E 009°24'5 9.3
2018-Jun-19 22:30N 43°49' E 009°19'5 9.4
2018-Jun-19 22:00N 43°52' E 009°14'5 9.1
2018-Jun-19 21:30N 43°55' E 009°09'5 9.1
2018-Jun-19 21:00N 43°59' E 009°06'4 7.9
2018-Jun-19 20:30N 44°03' E 009°04'5 9.4
2018-Jun-19 20:00N 44°07' E 009°03'5 9.5
2018-Jun-19 19:30N 44°12' E 009°01'5 9.3
2018-Jun-19 19:00N 44°16' E 008°59'5 9.2
2018-Jun-19 18:30N 44°21' E 008°58'4 7.1
2018-Jun-19 18:01N 44°24' E 008°55'1 1.9
2018-Jun-19 17:30N 44°25' E 008°55'0 0.0
2018-Jun-19 16:58N 44°25' E 008°55'0 0.0
2018-Jun-19 16:28N 44°25' E 008°55'0 0.0
2018-Jun-19 15:58N 44°25' E 008°55'0 0.0
2018-Jun-19 15:22N 44°25' E 008°55'0 0.0
2018-Jun-19 14:58N 44°25' E 008°55'0 0.0
2018-Jun-19 14:28N 44°25' E 008°55'0 0.0
2018-Jun-19 13:58N 44°25' E 008°55'0 0.0
2018-Jun-19 13:25N 44°25' E 008°55'0 0.0
2018-Jun-19 12:55N 44°25' E 008°55'0 0.0
2018-Jun-19 12:28N 44°25' E 008°55'0 0.0
2018-Jun-19 11:58N 44°25' E 008°55'0 0.0
2018-Jun-19 11:28N 44°25' E 008°55'0 0.0
2018-Jun-19 10:58N 44°25' E 008°55'0 0.0
2018-Jun-19 10:28N 44°25' E 008°55'0 0.0
2018-Jun-19 09:58N 44°25' E 008°55'0 0.0
2018-Jun-19 09:28N 44°25' E 008°55'0 0.0
2018-Jun-19 08:58N 44°25' E 008°55'0 0.0
2018-Jun-19 08:28N 44°25' E 008°55'0 0.0
2018-Jun-19 07:58N 44°25' E 008°55'0 0.0
2018-Jun-19 07:28N 44°25' E 008°55'0 0.0
2018-Jun-19 06:58N 44°25' E 008°55'0 0.0
2018-Jun-19 06:28N 44°25' E 008°55'0 0.0
2018-Jun-19 05:58N 44°25' E 008°55'0 0.0
2018-Jun-19 05:28N 44°25' E 008°55'0 0.0
2018-Jun-19 04:58N 44°25' E 008°55'0 0.1
2018-Jun-19 04:30N 44°25' E 008°55'2 3.5
2018-Jun-19 04:00N 44°23' E 008°56'3 6.9
2018-Jun-19 03:30N 44°20' E 008°59'4 8.5
2018-Jun-19 03:00N 44°17' E 008°56'5 9.8
2018-Jun-19 02:30N 44°12' E 008°54'5 9.8
2018-Jun-19 02:00N 44°07' E 008°52'5 9.8
2018-Jun-19 01:30N 44°03' E 008°49'5 9.7
2018-Jun-19 01:00N 43°58' E 008°46'5 9.6
2018-Jun-19 00:30N 43°54' E 008°44'5 9.7
2018-Jun-19 00:00N 43°49' E 008°42'5 9.7
2018-Jun-18 23:30N 43°45' E 008°40'5 9.3
2018-Jun-18 23:00N 43°40' E 008°37'5 9.8
2018-Jun-18 22:30N 43°39' E 008°30'5 9.8
2018-Jun-18 22:00N 43°39' E 008°24'5 9.6
2018-Jun-18 21:30N 43°38' E 008°17'5 9.3
2018-Jun-18 21:00N 43°38' E 008°11'5 9.1
2018-Jun-18 20:30N 43°37' E 008°04'4 8.9
2018-Jun-18 20:00N 43°37' E 007°58'4 8.6
2018-Jun-18 19:30N 43°36' E 007°52'4 8.6
2018-Jun-18 19:00N 43°37' E 007°47'4 8.8
2018-Jun-18 18:30N 43°37' E 007°41'5 9.3
2018-Jun-18 18:00N 43°38' E 007°34'5 9.6
2018-Jun-18 17:30N 43°39' E 007°28'5 9.3
2018-Jun-18 17:00N 43°39' E 007°21'3 5.4
2018-Jun-18 16:29N 43°42' E 007°19'0 0.1
2018-Jun-18 16:00N 43°41' E 007°19'0 0.1
2018-Jun-18 15:30N 43°42' E 007°19'0 0.0
2018-Jun-18 15:00N 43°42' E 007°19'0 0.0
2018-Jun-18 13:58N 43°42' E 007°19'0 0.0
2018-Jun-18 12:33N 43°42' E 007°19'0 0.1
2018-Jun-18 12:25N 43°42' E 007°19'0 0.0
2018-Jun-18 12:00N 43°42' E 007°19'0 0.0
2018-Jun-18 11:30N 43°42' E 007°19'0 0.0
2018-Jun-18 10:44N 43°42' E 007°19'0 0.0
2018-Jun-18 10:30N 43°42' E 007°19'0 0.0
2018-Jun-18 09:55N 43°42' E 007°19'0 0.0
2018-Jun-18 09:30N 43°42' E 007°19'0 0.0
2018-Jun-18 09:00N 43°42' E 007°19'0 0.0
2018-Jun-18 08:30N 43°42' E 007°19'0 0.0
2018-Jun-18 07:57N 43°42' E 007°19'0 0.0
2018-Jun-18 07:30N 43°42' E 007°19'0 0.0
2018-Jun-18 06:55N 43°42' E 007°19'0 0.0
2018-Jun-18 06:12N 43°42' E 007°19'0 0.0
2018-Jun-18 05:59N 43°42' E 007°19'0 0.0
2018-Jun-18 05:28N 43°42' E 007°19'0 0.0
2018-Jun-18 05:00N 43°42' E 007°19'0 0.1
2018-Jun-18 04:30N 43°41' E 007°19'2 4.8
2018-Jun-18 04:00N 43°39' E 007°19'5 9.9
2018-Jun-18 03:30N 43°34' E 007°17'510.2
2018-Jun-18 03:00N 43°30' E 007°14'510.1
2018-Jun-18 02:30N 43°25' E 007°12'510.0
2018-Jun-18 02:00N 43°20' E 007°09'5 9.7
2018-Jun-18 01:30N 43°16' E 007°07'5 9.5
2018-Jun-18 01:00N 43°11' E 007°04'5 9.8
2018-Jun-18 00:30N 43°07' E 007°02'5 9.7
2018-Jun-18 00:00N 43°03' E 006°57'5 9.7
2018-Jun-17 23:30N 42°60' E 006°53'5 9.4
2018-Jun-17 22:57N 42°56' E 006°48'4 9.4
2018-Jun-17 22:30N 42°53' E 006°44'5 9.9
2018-Jun-17 22:00N 42°53' E 006°37'611.8
2018-Jun-17 21:31N 42°53' E 006°29'6016.7
2018-Jun-17 17:56N 43°07' E 005°10'816.8
2018-Jun-17 17:29N 43°14' E 005°09'914.9
2018-Jun-17 16:53N 43°20' E 005°18'2 0.3
2018-Jun-17 11:11N 43°21' E 005°20'0 0.0
2018-Jun-17 10:41N 43°21' E 005°20'0 0.0
2018-Jun-17 10:23N 43°21' E 005°20'0 0.0
2018-Jun-17 09:59N 43°21' E 005°20'0 0.0
2018-Jun-17 09:29N 43°21' E 005°20'0 0.0
2018-Jun-17 07:47N 43°21' E 005°20'0 0.0
2018-Jun-17 07:29N 43°21' E 005°20'0 0.0
2018-Jun-17 06:47N 43°21' E 005°20'0 0.0
2018-Jun-17 06:29N 43°21' E 005°20'0 0.0
2018-Jun-17 05:47N 43°21' E 005°20'0 1.2
2018-Jun-17 05:30N 43°21' E 005°20'2 3.6
2018-Jun-17 05:00N 43°20' E 005°17'4 7.5
2018-Jun-17 04:30N 43°18' E 005°13'4 8.0
2018-Jun-17 04:00N 43°14' E 005°10'4 8.3
2018-Jun-17 03:29N 43°10' E 005°09'15215.0
2018-Jun-16 17:23N 41°27' E 002°40'616.6
2018-Jun-16 17:00N 41°24' E 002°32'816.6
2018-Jun-16 16:30N 41°19' E 002°23'816.1
2018-Jun-16 16:00N 41°16' E 002°13'5 9.2
2018-Jun-16 15:30N 41°21' E 002°10'1 2.0
2018-Jun-16 15:00N 41°21' E 002°11'0 0.0
2018-Jun-16 14:30N 41°21' E 002°11'0 0.0
2018-Jun-16 14:00N 41°21' E 002°11'0 0.0
2018-Jun-16 13:30N 41°21' E 002°11'0 0.0
2018-Jun-16 12:57N 41°21' E 002°11'0 0.0
2018-Jun-16 12:30N 41°21' E 002°11'0 0.0
2018-Jun-16 12:00N 41°21' E 002°11'0 0.0
2018-Jun-16 11:30N 41°21' E 002°11'0 0.0
2018-Jun-16 11:00N 41°21' E 002°11'0 0.0
2018-Jun-16 10:30N 41°21' E 002°11'0 0.0
2018-Jun-16 10:00N 41°21' E 002°11'0 0.0
2018-Jun-16 09:30N 41°21' E 002°11'0 0.0
2018-Jun-16 09:00N 41°21' E 002°11'0 0.0
2018-Jun-16 08:30N 41°21' E 002°11'0 0.0
2018-Jun-16 08:00N 41°21' E 002°11'0 0.0
2018-Jun-16 07:30N 41°21' E 002°11'0 0.0
2018-Jun-16 07:00N 41°21' E 002°11'0 0.0
2018-Jun-16 06:30N 41°21' E 002°11'0 0.0
2018-Jun-16 06:00N 41°21' E 002°11'0 0.0
2018-Jun-16 05:30N 41°21' E 002°11'0 0.0
2018-Jun-16 05:00N 41°21' E 002°11'0 0.0
2018-Jun-16 04:30N 41°21' E 002°11'0 0.0
2018-Jun-16 03:57N 41°21' E 002°11'0 0.0
2018-Jun-16 03:30N 41°21' E 002°11'2 3.9
2018-Jun-16 03:00N 41°20' E 002°10'4 7.3
2018-Jun-16 02:30N 41°16' E 002°12'4 7.1
2018-Jun-16 02:00N 41°14' E 002°15'4 7.8
2018-Jun-16 01:30N 41°12' E 002°19'4 7.9
2018-Jun-16 01:00N 41°10' E 002°24'4 7.5
2018-Jun-16 00:30N 41°09' E 002°29'4 7.4
2018-Jun-16 00:00N 41°10' E 002°33'4 7.4
2018-Jun-15 23:30N 41°13' E 002°37'4 7.6
2018-Jun-15 23:00N 41°14' E 002°41'8 7.7
2018-Jun-15 21:55N 41°18' E 002°52'30 5.1
2018-Jun-15 16:07N 41°22' E 003°31'1 7.6
2018-Jun-15 16:00N 41°23' E 003°31'4 7.4
2018-Jun-15 15:30N 41°27' E 003°31'4 7.7
2018-Jun-15 14:57N 41°31' E 003°31'3 6.7
2018-Jun-15 14:30N 41°34' E 003°32'4 7.7
2018-Jun-15 14:00N 41°35' E 003°37'179 9.1
2018-Jun-14 18:21N 43°14' E 007°00'3 9.9
2018-Jun-14 18:00N 43°17' E 007°00'5 9.5
2018-Jun-14 17:30N 43°22' E 007°00'5 9.8
2018-Jun-14 17:00N 43°27' E 007°00'5 9.3
2018-Jun-14 16:30N 43°31' E 007°01'1 1.7
2018-Jun-14 16:00N 43°32' E 007°01'0 0.1
2018-Jun-14 15:30N 43°32' E 007°01'0 0.0
2018-Jun-14 15:00N 43°32' E 007°01'0 0.0
2018-Jun-14 14:30N 43°32' E 007°01'0 0.0
2018-Jun-14 14:00N 43°32' E 007°01'0 0.0
2018-Jun-14 13:24N 43°32' E 007°01'0 0.0
2018-Jun-14 13:00N 43°32' E 007°01'0 0.0
2018-Jun-14 12:30N 43°32' E 007°01'0 0.0
2018-Jun-14 12:00N 43°32' E 007°01'0 0.0
2018-Jun-14 11:30N 43°32' E 007°01'0 0.0
2018-Jun-14 10:57N 43°32' E 007°01'0 0.0
2018-Jun-14 10:27N 43°32' E 007°01'0 0.1
2018-Jun-14 10:00N 43°32' E 007°01'0 0.1
2018-Jun-14 09:30N 43°32' E 007°01'0 0.1
2018-Jun-14 09:00N 43°32' E 007°01'0 0.1
2018-Jun-14 08:30N 43°32' E 007°01'0 0.0
2018-Jun-14 08:00N 43°32' E 007°01'0 0.0
2018-Jun-14 07:30N 43°32' E 007°01'0 0.0
2018-Jun-14 07:00N 43°32' E 007°01'0 0.0
2018-Jun-14 06:30N 43°32' E 007°01'0 0.1
2018-Jun-14 06:00N 43°32' E 007°01'0 0.0
2018-Jun-14 05:30N 43°32' E 007°01'0 0.0
2018-Jun-14 05:00N 43°32' E 007°01'0 0.1
2018-Jun-14 04:31N 43°32' E 007°01'1 2.7
2018-Jun-14 04:00N 43°31' E 007°00'3 6.6
2018-Jun-14 03:30N 43°28' E 007°04'5 9.6
2018-Jun-14 03:00N 43°28' E 007°10'5 9.9
2018-Jun-14 02:30N 43°29' E 007°17'510.2
2018-Jun-14 02:00N 43°29' E 007°24'710.7
2018-Jun-14 01:24N 43°29' E 007°33'410.7
2018-Jun-14 01:00N 43°29' E 007°39'714.8
2018-Jun-14 00:30N 43°29' E 007°49'917.5
2018-Jun-14 00:00N 43°30' E 008°01'917.3
2018-Jun-13 23:30N 43°30' E 008°13'917.3
2018-Jun-13 23:00N 43°31' E 008°25'817.0
2018-Jun-13 22:30N 43°30' E 008°36'917.3
2018-Jun-13 22:00N 43°31' E 008°48'917.2
2018-Jun-13 21:30N 43°31' E 009°00'714.7
2018-Jun-13 21:00N 43°31' E 009°10'3 6.6
2018-Jun-13 20:30N 43°31' E 009°15'816.9
2018-Jun-13 20:00N 43°31' E 009°26'917.3
2018-Jun-13 19:30N 43°32' E 009°38'917.3
2018-Jun-13 19:00N 43°32' E 009°50'816.9
2018-Jun-13 18:30N 43°31' E 010°02'815.6
2018-Jun-13 18:00N 43°31' E 010°12'4 8.5
2018-Jun-13 17:30N 43°33' E 010°18'0 0.8
2018-Jun-13 16:59N 43°33' E 010°18'0 0.0
2018-Jun-13 16:29N 43°33' E 010°18'0 0.0
2018-Jun-13 15:59N 43°33' E 010°18'0 0.0
2018-Jun-13 15:29N 43°33' E 010°18'0 0.0
2018-Jun-13 14:56N 43°33' E 010°18'0 0.0
2018-Jun-13 14:29N 43°33' E 010°18'0 0.0
2018-Jun-13 13:59N 43°33' E 010°18'0 0.0
2018-Jun-13 13:29N 43°33' E 010°18'0 0.0
2018-Jun-13 12:56N 43°33' E 010°18'0 0.0
2018-Jun-13 12:29N 43°33' E 010°18'0 0.0
2018-Jun-13 11:59N 43°33' E 010°18'0 0.0
2018-Jun-13 11:29N 43°33' E 010°18'0 0.0
2018-Jun-13 10:56N 43°33' E 010°18'0 0.0
2018-Jun-13 10:29N 43°33' E 010°18'0 0.0
2018-Jun-13 09:59N 43°33' E 010°18'0 0.0
2018-Jun-13 09:29N 43°33' E 010°18'0 0.0
2018-Jun-13 08:59N 43°33' E 010°18'0 0.0
2018-Jun-13 08:29N 43°33' E 010°18'0 0.0
2018-Jun-13 07:59N 43°33' E 010°18'0 0.0
2018-Jun-13 07:29N 43°33' E 010°18'0 0.0
2018-Jun-13 06:59N 43°33' E 010°18'0 0.0
2018-Jun-13 06:29N 43°33' E 010°18'0 0.0
2018-Jun-13 05:59N 43°33' E 010°18'0 0.0
2018-Jun-13 05:26N 43°33' E 010°18'0 0.0
2018-Jun-13 04:59N 43°33' E 010°18'0 0.0
2018-Jun-13 04:29N 43°33' E 010°18'0 0.7
2018-Jun-13 04:00N 43°33' E 010°18'4 7.4
2018-Jun-13 03:30N 43°30' E 010°14'713.1
2018-Jun-13 03:00N 43°24' E 010°11'816.4
2018-Jun-13 02:30N 43°16' E 010°08'816.5
2018-Jun-13 02:01N 43°09' E 010°04'816.7
2018-Jun-13 01:30N 43°01' E 010°01'816.7
2018-Jun-13 01:00N 42°52' E 009°57'  
Track history (hours):
 
Tides and Currents Weather Stations Pressure Air Temp Water Temp Dewpoint Dewpoint Depression Visibility Wind Speed Wind Dir Waves Ship Positions

Disney Magic

Last reported at 2018-Jun-22 07:29 UTC. Time now 2018-Jun-22 07:42 UTC.
Position N 40°51' E 014°16'.

Type: Passenger vessel. MMSI: 308516000.

Date/timePositionNaut miles runAvg speedWind from/ knotsBaromVisibWave heightAir tempDewpointWater temp
2018-Jun-22 07:29N 40°51' E 014°16'0 0.0
2018-Jun-22 06:56N 40°51' E 014°16'0 0.0
2018-Jun-22 06:29N 40°51' E 014°16'0 0.0
2018-Jun-22 05:59N 40°51' E 014°16'0 0.0
2018-Jun-22 05:29N 40°51' E 014°16'0 0.0
2018-Jun-22 04:59N 40°51' E 014°16'0 0.0
2018-Jun-22 04:29N 40°51' E 014°16'0 0.1
2018-Jun-22 04:00N 40°51' E 014°16'2 4.8
2018-Jun-22 03:30N 40°49' E 014°17'5 9.2
2018-Jun-22 03:00N 40°45' E 014°14'4 8.8
2018-Jun-22 02:30N 40°42' E 014°10'4 8.8
2018-Jun-22 02:00N 40°39' E 014°05'5 9.3
2018-Jun-22 01:30N 40°37' E 013°59'4 8.3
2018-Jun-22 01:00N 40°36' E 013°54'4 8.3
2018-Jun-22 00:30N 40°35' E 013°49'4 8.4
2018-Jun-22 00:00N 40°34' E 013°44'4 8.6
2018-Jun-21 23:30N 40°32' E 013°38'4 8.4
2018-Jun-21 23:00N 40°33' E 013°33'4 8.7
2018-Jun-21 22:30N 40°33' E 013°27'25 8.9
2018-Jun-21 19:41N 40°38' E 012°54'82 8.7
2018-Jun-21 10:18N 41°32' E 011°33'4 8.8
2018-Jun-21 09:49N 41°36' E 011°30'14 9.0
2018-Jun-21 08:14N 41°46' E 011°17'3 8.9
2018-Jun-21 07:55N 41°48' E 011°14'4 9.0
2018-Jun-21 07:30N 41°51' E 011°11'6 9.3
2018-Jun-21 06:51N 41°55' E 011°05'5 9.4
2018-Jun-21 06:22N 41°59' E 011°01'5 9.3
2018-Jun-21 05:47N 42°03' E 010°56'3 9.3
2018-Jun-21 05:30N 42°05' E 010°54'5 9.3
2018-Jun-21 05:00N 42°08' E 010°49'5 9.2
2018-Jun-21 04:30N 42°11' E 010°45'5 9.3
2018-Jun-21 04:00N 42°15' E 010°41'5 9.3
2018-Jun-21 03:30N 42°18' E 010°36'5 9.3
2018-Jun-21 02:59N 42°22' E 010°32'5 9.2
2018-Jun-21 02:29N 42°25' E 010°28'5 9.3
2018-Jun-21 01:54N 42°29' E 010°23'4 9.3
2018-Jun-21 01:30N 42°32' E 010°20'11 9.6
2018-Jun-21 00:19N 42°40' E 010°08'3 9.7
2018-Jun-21 00:00N 42°42' E 010°05'5 9.6
2018-Jun-20 23:30N 42°44' E 009°59'3 6.8
2018-Jun-20 23:00N 42°47' E 010°00'4 9.0
2018-Jun-20 22:30N 42°51' E 010°03'5 9.3
2018-Jun-20 22:00N 42°56' E 010°05'5 9.5
2018-Jun-20 21:30N 42°60' E 010°08'5 9.2
2018-Jun-20 21:00N 43°04' E 010°10'5 9.2
2018-Jun-20 20:30N 43°09' E 010°09'5 9.1
2018-Jun-20 20:00N 43°13' E 010°07'4 9.0
2018-Jun-20 19:30N 43°18' E 010°07'5 9.4
2018-Jun-20 19:00N 43°22' E 010°08'5 9.4
2018-Jun-20 18:30N 43°27' E 010°10'5 9.1
2018-Jun-20 18:00N 43°31' E 010°13'4 8.0
2018-Jun-20 17:30N 43°33' E 010°17'1 1.2
2018-Jun-20 17:00N 43°33' E 010°18'0 0.0
2018-Jun-20 16:30N 43°33' E 010°18'0 0.0
2018-Jun-20 15:57N 43°33' E 010°18'0 0.0
2018-Jun-20 15:30N 43°33' E 010°18'0 0.0
2018-Jun-20 15:00N 43°33' E 010°18'0 0.0
2018-Jun-20 14:30N 43°33' E 010°18'0 0.0
2018-Jun-20 13:57N 43°33' E 010°18'0 0.0
2018-Jun-20 13:30N 43°33' E 010°18'0 0.0
2018-Jun-20 13:00N 43°33' E 010°18'0 0.0
2018-Jun-20 12:27N 43°33' E 010°18'0 0.0
2018-Jun-20 12:00N 43°33' E 010°18'0 0.0
2018-Jun-20 11:27N 43°33' E 010°18'0 0.0
2018-Jun-20 11:00N 43°33' E 010°18'0 0.0
2018-Jun-20 10:30N 43°33' E 010°18'0 0.0
2018-Jun-20 10:00N 43°33' E 010°18'0 0.0
2018-Jun-20 09:30N 43°33' E 010°18'0 0.0
2018-Jun-20 09:00N 43°33' E 010°18'0 0.0
2018-Jun-20 08:27N 43°33' E 010°18'0 0.0
2018-Jun-20 08:00N 43°33' E 010°18'0 0.0
2018-Jun-20 07:30N 43°33' E 010°18'0 0.0
2018-Jun-20 06:57N 43°33' E 010°18'0 0.0
2018-Jun-20 06:27N 43°33' E 010°18'0 0.0
2018-Jun-20 06:00N 43°33' E 010°18'0 0.0
2018-Jun-20 05:30N 43°33' E 010°18'0 0.0
2018-Jun-20 05:00N 43°33' E 010°18'0 0.4
2018-Jun-20 04:31N 43°33' E 010°18'2 4.7
2018-Jun-20 04:00N 43°31' E 010°16'1 2.9
2018-Jun-20 03:30N 43°30' E 010°14'4 7.5
2018-Jun-20 03:00N 43°30' E 010°09'4 8.7
2018-Jun-20 02:30N 43°31' E 010°03'4 8.7
2018-Jun-20 02:00N 43°32' E 009°57'4 8.7
2018-Jun-20 01:30N 43°34' E 009°52'5 9.6
2018-Jun-20 01:00N 43°36' E 009°46'510.1
2018-Jun-20 00:30N 43°39' E 009°41'5 9.6
2018-Jun-20 00:00N 43°42' E 009°35'5 9.2
2018-Jun-19 23:30N 43°44' E 009°30'5 9.2
2018-Jun-19 23:00N 43°47' E 009°24'5 9.3
2018-Jun-19 22:30N 43°49' E 009°19'5 9.4
2018-Jun-19 22:00N 43°52' E 009°14'5 9.1
2018-Jun-19 21:30N 43°55' E 009°09'5 9.1
2018-Jun-19 21:00N 43°59' E 009°06'4 7.9
2018-Jun-19 20:30N 44°03' E 009°04'5 9.4
2018-Jun-19 20:00N 44°07' E 009°03'5 9.5
2018-Jun-19 19:30N 44°12' E 009°01'5 9.3
2018-Jun-19 19:00N 44°16' E 008°59'5 9.2
2018-Jun-19 18:30N 44°21' E 008°58'4 7.1
2018-Jun-19 18:01N 44°24' E 008°55'1 1.9
2018-Jun-19 17:30N 44°25' E 008°55'0 0.0
2018-Jun-19 16:58N 44°25' E 008°55'0 0.0
2018-Jun-19 16:28N 44°25' E 008°55'0 0.0
2018-Jun-19 15:58N 44°25' E 008°55'0 0.0
2018-Jun-19 15:22N 44°25' E 008°55'0 0.0
2018-Jun-19 14:58N 44°25' E 008°55'0 0.0
2018-Jun-19 14:28N 44°25' E 008°55'0 0.0
2018-Jun-19 13:58N 44°25' E 008°55'0 0.0
2018-Jun-19 13:25N 44°25' E 008°55'0 0.0
2018-Jun-19 12:55N 44°25' E 008°55'0 0.0
2018-Jun-19 12:28N 44°25' E 008°55'0 0.0
2018-Jun-19 11:58N 44°25' E 008°55'0 0.0
2018-Jun-19 11:28N 44°25' E 008°55'0 0.0
2018-Jun-19 10:58N 44°25' E 008°55'0 0.0
2018-Jun-19 10:28N 44°25' E 008°55'0 0.0
2018-Jun-19 09:58N 44°25' E 008°55'0 0.0
2018-Jun-19 09:28N 44°25' E 008°55'0 0.0
2018-Jun-19 08:58N 44°25' E 008°55'0 0.0
2018-Jun-19 08:28N 44°25' E 008°55'0 0.0
2018-Jun-19 07:58N 44°25' E 008°55'0 0.0
2018-Jun-19 07:28N 44°25' E 008°55'0 0.0
2018-Jun-19 06:58N 44°25' E 008°55'0 0.0
2018-Jun-19 06:28N 44°25' E 008°55'0 0.0
2018-Jun-19 05:58N 44°25' E 008°55'0 0.0
2018-Jun-19 05:28N 44°25' E 008°55'0 0.0
2018-Jun-19 04:58N 44°25' E 008°55'0 0.1
2018-Jun-19 04:30N 44°25' E 008°55'2 3.5
2018-Jun-19 04:00N 44°23' E 008°56'3 6.9
2018-Jun-19 03:30N 44°20' E 008°59'4 8.5
2018-Jun-19 03:00N 44°17' E 008°56'5 9.8
2018-Jun-19 02:30N 44°12' E 008°54'5 9.8
2018-Jun-19 02:00N 44°07' E 008°52'5 9.8
2018-Jun-19 01:30N 44°03' E 008°49'5 9.7
2018-Jun-19 01:00N 43°58' E 008°46'5 9.6
2018-Jun-19 00:30N 43°54' E 008°44'5 9.7
2018-Jun-19 00:00N 43°49' E 008°42'5 9.7
2018-Jun-18 23:30N 43°45' E 008°40'5 9.3
2018-Jun-18 23:00N 43°40' E 008°37'5 9.8
2018-Jun-18 22:30N 43°39' E 008°30'5 9.8
2018-Jun-18 22:00N 43°39' E 008°24'5 9.6
2018-Jun-18 21:30N 43°38' E 008°17'5 9.3
2018-Jun-18 21:00N 43°38' E 008°11'5 9.1
2018-Jun-18 20:30N 43°37' E 008°04'4 8.9
2018-Jun-18 20:00N 43°37' E 007°58'4 8.6
2018-Jun-18 19:30N 43°36' E 007°52'4 8.6
2018-Jun-18 19:00N 43°37' E 007°47'4 8.8
2018-Jun-18 18:30N 43°37' E 007°41'5 9.3
2018-Jun-18 18:00N 43°38' E 007°34'5 9.6
2018-Jun-18 17:30N 43°39' E 007°28'5 9.3
2018-Jun-18 17:00N 43°39' E 007°21'3 5.4
2018-Jun-18 16:29N 43°42' E 007°19'0 0.1
2018-Jun-18 16:00N 43°41' E 007°19'0 0.1
2018-Jun-18 15:30N 43°42' E 007°19'0 0.0
2018-Jun-18 15:00N 43°42' E 007°19'0 0.0
2018-Jun-18 13:58N 43°42' E 007°19'0 0.0
2018-Jun-18 12:33N 43°42' E 007°19'0 0.1
2018-Jun-18 12:25N 43°42' E 007°19'0 0.0
2018-Jun-18 12:00N 43°42' E 007°19'0 0.0
2018-Jun-18 11:30N 43°42' E 007°19'0 0.0
2018-Jun-18 10:44N 43°42' E 007°19'0 0.0
2018-Jun-18 10:30N 43°42' E 007°19'0 0.0
2018-Jun-18 09:55N 43°42' E 007°19'0 0.0
2018-Jun-18 09:30N 43°42' E 007°19'0 0.0
2018-Jun-18 09:00N 43°42' E 007°19'0 0.0
2018-Jun-18 08:30N 43°42' E 007°19'0 0.0
2018-Jun-18 07:57N 43°42' E 007°19'0 0.0
2018-Jun-18 07:30N 43°42' E 007°19'0 0.0
2018-Jun-18 06:55N 43°42' E 007°19'0 0.0
2018-Jun-18 06:12N 43°42' E 007°19'0 0.0
2018-Jun-18 05:59N 43°42' E 007°19'0 0.0
2018-Jun-18 05:28N 43°42' E 007°19'0 0.0
2018-Jun-18 05:00N 43°42' E 007°19'0 0.1
2018-Jun-18 04:30N 43°41' E 007°19'2 4.8
2018-Jun-18 04:00N 43°39' E 007°19'5 9.9
2018-Jun-18 03:30N 43°34' E 007°17'510.2
2018-Jun-18 03:00N 43°30' E 007°14'510.1
2018-Jun-18 02:30N 43°25' E 007°12'510.0
2018-Jun-18 02:00N 43°20' E 007°09'5 9.7
2018-Jun-18 01:30N 43°16' E 007°07'5 9.5
2018-Jun-18 01:00N 43°11' E 007°04'5 9.8
2018-Jun-18 00:30N 43°07' E 007°02'5 9.7
2018-Jun-18 00:00N 43°03' E 006°57'5 9.7
2018-Jun-17 23:30N 42°60' E 006°53'5 9.4
2018-Jun-17 22:57N 42°56' E 006°48'4 9.4
2018-Jun-17 22:30N 42°53' E 006°44'5 9.9
2018-Jun-17 22:00N 42°53' E 006°37'611.8
2018-Jun-17 21:31N 42°53' E 006°29'6016.7
2018-Jun-17 17:56N 43°07' E 005°10'816.8
2018-Jun-17 17:29N 43°14' E 005°09'914.9
2018-Jun-17 16:53N 43°20' E 005°18'2 0.3
2018-Jun-17 11:11N 43°21' E 005°20'0 0.0
2018-Jun-17 10:41N 43°21' E 005°20'0 0.0
2018-Jun-17 10:23N 43°21' E 005°20'0 0.0
2018-Jun-17 09:59N 43°21' E 005°20'0 0.0
2018-Jun-17 09:29N 43°21' E 005°20'0 0.0
2018-Jun-17 07:47N 43°21' E 005°20'0 0.0
2018-Jun-17 07:29N 43°21' E 005°20'0 0.0
2018-Jun-17 06:47N 43°21' E 005°20'0 0.0
2018-Jun-17 06:29N 43°21' E 005°20'0 0.0
2018-Jun-17 05:47N 43°21' E 005°20'0 1.2
2018-Jun-17 05:30N 43°21' E 005°20'2 3.6
2018-Jun-17 05:00N 43°20' E 005°17'4 7.5
2018-Jun-17 04:30N 43°18' E 005°13'4 8.0
2018-Jun-17 04:00N 43°14' E 005°10'4 8.3
2018-Jun-17 03:29N 43°10' E 005°09'15215.0
2018-Jun-16 17:23N 41°27' E 002°40'616.6
2018-Jun-16 17:00N 41°24' E 002°32'816.6
2018-Jun-16 16:30N 41°19' E 002°23'816.1
2018-Jun-16 16:00N 41°16' E 002°13'5 9.2
2018-Jun-16 15:30N 41°21' E 002°10'1 2.0
2018-Jun-16 15:00N 41°21' E 002°11'0 0.0
2018-Jun-16 14:30N 41°21' E 002°11'0 0.0
2018-Jun-16 14:00N 41°21' E 002°11'0 0.0
2018-Jun-16 13:30N 41°21' E 002°11'0 0.0
2018-Jun-16 12:57N 41°21' E 002°11'0 0.0
2018-Jun-16 12:30N 41°21' E 002°11'0 0.0
2018-Jun-16 12:00N 41°21' E 002°11'0 0.0
2018-Jun-16 11:30N 41°21' E 002°11'0 0.0
2018-Jun-16 11:00N 41°21' E 002°11'0 0.0
2018-Jun-16 10:30N 41°21' E 002°11'0 0.0
2018-Jun-16 10:00N 41°21' E 002°11'0 0.0
2018-Jun-16 09:30N 41°21' E 002°11'0 0.0
2018-Jun-16 09:00N 41°21' E 002°11'0 0.0
2018-Jun-16 08:30N 41°21' E 002°11'0 0.0
2018-Jun-16 08:00N 41°21' E 002°11'0 0.0
2018-Jun-16 07:30N 41°21' E 002°11'0 0.0
2018-Jun-16 07:00N 41°21' E 002°11'0 0.0
2018-Jun-16 06:30N 41°21' E 002°11'0 0.0
2018-Jun-16 06:00N 41°21' E 002°11'0 0.0
2018-Jun-16 05:30N 41°21' E 002°11'0 0.0
2018-Jun-16 05:00N 41°21' E 002°11'0 0.0
2018-Jun-16 04:30N 41°21' E 002°11'0 0.0
2018-Jun-16 03:57N 41°21' E 002°11'0 0.0
2018-Jun-16 03:30N 41°21' E 002°11'2 3.9
2018-Jun-16 03:00N 41°20' E 002°10'4 7.3
2018-Jun-16 02:30N 41°16' E 002°12'4 7.1
2018-Jun-16 02:00N 41°14' E 002°15'4 7.8
2018-Jun-16 01:30N 41°12' E 002°19'4 7.9
2018-Jun-16 01:00N 41°10' E 002°24'4 7.5
2018-Jun-16 00:30N 41°09' E 002°29'4 7.4
2018-Jun-16 00:00N 41°10' E 002°33'4 7.4
2018-Jun-15 23:30N 41°13' E 002°37'4 7.6
2018-Jun-15 23:00N 41°14' E 002°41'8 7.7
2018-Jun-15 21:55N 41°18' E 002°52'30 5.1
2018-Jun-15 16:07N 41°22' E 003°31'1 7.6
2018-Jun-15 16:00N 41°23' E 003°31'4 7.4
2018-Jun-15 15:30N 41°27' E 003°31'4 7.7
2018-Jun-15 14:57N 41°31' E 003°31'3 6.7
2018-Jun-15 14:30N 41°34' E 003°32'4 7.7
2018-Jun-15 14:00N 41°35' E 003°37'179 9.1
2018-Jun-14 18:21N 43°14' E 007°00'3 9.9
2018-Jun-14 18:00N 43°17' E 007°00'5 9.5
2018-Jun-14 17:30N 43°22' E 007°00'5 9.8
2018-Jun-14 17:00N 43°27' E 007°00'5 9.3
2018-Jun-14 16:30N 43°31' E 007°01'1 1.7
2018-Jun-14 16:00N 43°32' E 007°01'0 0.1
2018-Jun-14 15:30N 43°32' E 007°01'0 0.0
2018-Jun-14 15:00N 43°32' E 007°01'0 0.0
2018-Jun-14 14:30N 43°32' E 007°01'0 0.0
2018-Jun-14 14:00N 43°32' E 007°01'0 0.0
2018-Jun-14 13:24N 43°32' E 007°01'0 0.0
2018-Jun-14 13:00N 43°32' E 007°01'0 0.0
2018-Jun-14 12:30N 43°32' E 007°01'0 0.0
2018-Jun-14 12:00N 43°32' E 007°01'0 0.0
2018-Jun-14 11:30N 43°32' E 007°01'0 0.0
2018-Jun-14 10:57N 43°32' E 007°01'0 0.0
2018-Jun-14 10:27N 43°32' E 007°01'0 0.1
2018-Jun-14 10:00N 43°32' E 007°01'0 0.1
2018-Jun-14 09:30N 43°32' E 007°01'0 0.1
2018-Jun-14 09:00N 43°32' E 007°01'0 0.1
2018-Jun-14 08:30N 43°32' E 007°01'0 0.0
2018-Jun-14 08:00N 43°32' E 007°01'0 0.0
2018-Jun-14 07:30N 43°32' E 007°01'0 0.0
2018-Jun-14 07:00N 43°32' E 007°01'0 0.0
2018-Jun-14 06:30N 43°32' E 007°01'0 0.1
2018-Jun-14 06:00N 43°32' E 007°01'0 0.0
2018-Jun-14 05:30N 43°32' E 007°01'0 0.0
2018-Jun-14 05:00N 43°32' E 007°01'0 0.1
2018-Jun-14 04:31N 43°32' E 007°01'1 2.7
2018-Jun-14 04:00N 43°31' E 007°00'3 6.6
2018-Jun-14 03:30N 43°28' E 007°04'5 9.6
2018-Jun-14 03:00N 43°28' E 007°10'5 9.9
2018-Jun-14 02:30N 43°29' E 007°17'510.2
2018-Jun-14 02:00N 43°29' E 007°24'710.7
2018-Jun-14 01:24N 43°29' E 007°33'410.7
2018-Jun-14 01:00N 43°29' E 007°39'714.8
2018-Jun-14 00:30N 43°29' E 007°49'917.5
2018-Jun-14 00:00N 43°30' E 008°01'917.3
2018-Jun-13 23:30N 43°30' E 008°13'917.3
2018-Jun-13 23:00N 43°31' E 008°25'817.0
2018-Jun-13 22:30N 43°30' E 008°36'917.3
2018-Jun-13 22:00N 43°31' E 008°48'917.2
2018-Jun-13 21:30N 43°31' E 009°00'714.7
2018-Jun-13 21:00N 43°31' E 009°10'3 6.6
2018-Jun-13 20:30N 43°31' E 009°15'816.9
2018-Jun-13 20:00N 43°31' E 009°26'917.3
2018-Jun-13 19:30N 43°32' E 009°38'917.3
2018-Jun-13 19:00N 43°32' E 009°50'816.9
2018-Jun-13 18:30N 43°31' E 010°02'815.6
2018-Jun-13 18:00N 43°31' E 010°12'4 8.5
2018-Jun-13 17:30N 43°33' E 010°18'0 0.8
2018-Jun-13 16:59N 43°33' E 010°18'0 0.0
2018-Jun-13 16:29N 43°33' E 010°18'0 0.0
2018-Jun-13 15:59N 43°33' E 010°18'0 0.0
2018-Jun-13 15:29N 43°33' E 010°18'0 0.0
2018-Jun-13 14:56N 43°33' E 010°18'0 0.0
2018-Jun-13 14:29N 43°33' E 010°18'0 0.0
2018-Jun-13 13:59N 43°33' E 010°18'0 0.0
2018-Jun-13 13:29N 43°33' E 010°18'0 0.0
2018-Jun-13 12:56N 43°33' E 010°18'0 0.0
2018-Jun-13 12:29N 43°33' E 010°18'0 0.0
2018-Jun-13 11:59N 43°33' E 010°18'0 0.0
2018-Jun-13 11:29N 43°33' E 010°18'0 0.0
2018-Jun-13 10:56N 43°33' E 010°18'0 0.0
2018-Jun-13 10:29N 43°33' E 010°18'0 0.0
2018-Jun-13 09:59N 43°33' E 010°18'0 0.0
2018-Jun-13 09:29N 43°33' E 010°18'0 0.0
2018-Jun-13 08:59N 43°33' E 010°18'0 0.0
2018-Jun-13 08:29N 43°33' E 010°18'0 0.0
2018-Jun-13 07:59N 43°33' E 010°18'0 0.0
2018-Jun-13 07:29N 43°33' E 010°18'0 0.0
2018-Jun-13 06:59N 43°33' E 010°18'0 0.0
2018-Jun-13 06:29N 43°33' E 010°18'0 0.0
2018-Jun-13 05:59N 43°33' E 010°18'0 0.0
2018-Jun-13 05:26N 43°33' E 010°18'0 0.0
2018-Jun-13 04:59N 43°33' E 010°18'0 0.0
2018-Jun-13 04:29N 43°33' E 010°18'0 0.7
2018-Jun-13 04:00N 43°33' E 010°18'4 7.4
2018-Jun-13 03:30N 43°30' E 010°14'713.1
2018-Jun-13 03:00N 43°24' E 010°11'816.4
2018-Jun-13 02:30N 43°16' E 010°08'816.5
2018-Jun-13 02:01N 43°09' E 010°04'816.7
2018-Jun-13 01:30N 43°01' E 010°01'816.7
2018-Jun-13 01:00N 42°52' E 009°57'  

Dump ship's entire track history